Shelby — WCV6157 — position and weather

sailwx.info

Track history (hours):
 
Tides and Currents Weather Stations Pressure Air Temp Water Temp Dewpoint Dewpoint Depression Visibility Wind Speed Wind Dir Waves Ship Positions

Shelby

Owner: WEEKS MARINE, INC., CRANFORD, NJ. More information available from US FCC via Universal Licensing System and Coast Guard Vessel Documentation Center.

Last reported at 2017-Apr-23 18:27 UTC. Time now 2017-Apr-25 10:46 UTC.
Position N 32°16' W 080°44'.

Length 22 m; draft 3.1 m.

Type: Tug. MMSI: 366902344.

Date/timePositionNaut miles runAvg speedWind from/ knotsBaromVisibWave heightAir tempDewpointWater temp
2017-Apr-23 18:27N 32°16' W 080°44'0 0.0
2017-Apr-23 18:00N 32°16' W 080°44'0 0.0
2017-Apr-23 17:29N 32°16' W 080°44'0 0.0
2017-Apr-23 17:00N 32°16' W 080°44'0 0.0
2017-Apr-23 16:30N 32°16' W 080°44'0 0.0
2017-Apr-23 16:00N 32°16' W 080°44'232 6.3
2017-Apr-22 03:24N 34°22' W 076°50'4 7.8
2017-Apr-22 02:56N 34°23' W 076°46'3 7.7
2017-Apr-22 02:31N 34°24' W 076°42'3 3.4
2017-Apr-22 01:38N 34°24' W 076°39'1 8.5
2017-Apr-22 01:31N 34°24' W 076°37'4 8.3
2017-Apr-22 01:00N 34°25' W 076°33'4 7.9
2017-Apr-22 00:31N 34°27' W 076°28'4 8.1
2017-Apr-22 00:00N 34°30' W 076°25'4 8.4
2017-Apr-21 23:31N 34°34' W 076°24'4 8.3
2017-Apr-21 23:00N 34°38' W 076°21'4 8.1
2017-Apr-21 22:30N 34°41' W 076°19'127 5.3
2017-Apr-20 22:38N 36°47' W 075°54'2 8.2
2017-Apr-20 22:22N 36°49' W 075°55'3 8.2
2017-Apr-20 22:00N 36°52' W 075°56'4 8.5
2017-Apr-20 21:30N 36°56' W 075°58'4 8.3
2017-Apr-20 21:01N 36°57' W 076°03'3 0.1
2017-Apr-19 21:35N 36°59' W 076°06'110.1
2017-Apr-19 21:30N 36°58' W 076°05'121 9.6
2017-Apr-19 08:52N 38°44' W 074°52'25 9.5
2017-Apr-19 06:18N 39°06' W 074°38'5 9.7
2017-Apr-19 05:49N 39°10' W 074°35'4 9.8
2017-Apr-19 05:24N 39°14' W 074°32'11 3.9
2017-Apr-19 02:36N 39°24' W 074°26'0 0.0
2017-Apr-19 01:25N 39°24' W 074°26'  
2017-Apr-16 12:35N 39°24' W 074°26'0 0.0
2017-Apr-16 12:29N 39°24' W 074°26'0 0.1
2017-Apr-16 12:00N 39°24' W 074°26'0 0.2
2017-Apr-16 11:30N 39°24' W 074°26'0 0.0
2017-Apr-15 12:33N 39°24' W 074°26'0 0.5
2017-Apr-15 12:30N 39°24' W 074°26'0 0.5
2017-Apr-15 12:00N 39°23' W 074°26'1 2.2
2017-Apr-15 11:30N 39°23' W 074°25'1 2.6
2017-Apr-15 11:00N 39°21' W 074°24'2 2.3
2017-Apr-15 10:17N 39°22' W 074°26'0 0.0
2017-Apr-15 09:37N 39°23' W 074°26'0 0.0
2017-Apr-15 09:30N 39°23' W 074°26'0 0.0
2017-Apr-15 08:58N 39°23' W 074°26'0 0.0
2017-Apr-15 08:30N 39°23' W 074°26'0 0.0
2017-Apr-15 07:59N 39°23' W 074°26'0 0.0
2017-Apr-15 07:31N 39°23' W 074°26'0 0.0
2017-Apr-15 06:59N 39°23' W 074°26'0 0.0
2017-Apr-15 06:30N 39°23' W 074°26'0 0.0
2017-Apr-15 06:00N 39°23' W 074°26'0 0.0
2017-Apr-15 05:30N 39°23' W 074°26'0 0.0
2017-Apr-15 04:39N 39°23' W 074°26'1 2.7
2017-Apr-15 04:27N 39°23' W 074°25'1 1.1
2017-Apr-15 03:32N 39°24' W 074°26'0 0.0
2017-Apr-15 03:20N 39°24' W 074°26'  
Track history (hours):
 
Tides and Currents Weather Stations Pressure Air Temp Water Temp Dewpoint Dewpoint Depression Visibility Wind Speed Wind Dir Waves Ship Positions

Shelby

Owner: WEEKS MARINE, INC., CRANFORD, NJ. More information available from US FCC via Universal Licensing System and Coast Guard Vessel Documentation Center.

Last reported at 2017-Apr-23 18:27 UTC. Time now 2017-Apr-25 10:46 UTC.
Position N 32°16' W 080°44'.

Length 22 m; draft 3.1 m.

Type: Tug. MMSI: 366902344.

Date/timePositionNaut miles runAvg speedWind from/ knotsBaromVisibWave heightAir tempDewpointWater temp
2017-Apr-23 18:27N 32°16' W 080°44'0 0.0
2017-Apr-23 18:00N 32°16' W 080°44'0 0.0
2017-Apr-23 17:29N 32°16' W 080°44'0 0.0
2017-Apr-23 17:00N 32°16' W 080°44'0 0.0
2017-Apr-23 16:30N 32°16' W 080°44'0 0.0
2017-Apr-23 16:00N 32°16' W 080°44'232 6.3
2017-Apr-22 03:24N 34°22' W 076°50'4 7.8
2017-Apr-22 02:56N 34°23' W 076°46'3 7.7
2017-Apr-22 02:31N 34°24' W 076°42'3 3.4
2017-Apr-22 01:38N 34°24' W 076°39'1 8.5
2017-Apr-22 01:31N 34°24' W 076°37'4 8.3
2017-Apr-22 01:00N 34°25' W 076°33'4 7.9
2017-Apr-22 00:31N 34°27' W 076°28'4 8.1
2017-Apr-22 00:00N 34°30' W 076°25'4 8.4
2017-Apr-21 23:31N 34°34' W 076°24'4 8.3
2017-Apr-21 23:00N 34°38' W 076°21'4 8.1
2017-Apr-21 22:30N 34°41' W 076°19'127 5.3
2017-Apr-20 22:38N 36°47' W 075°54'2 8.2
2017-Apr-20 22:22N 36°49' W 075°55'3 8.2
2017-Apr-20 22:00N 36°52' W 075°56'4 8.5
2017-Apr-20 21:30N 36°56' W 075°58'4 8.3
2017-Apr-20 21:01N 36°57' W 076°03'3 0.1
2017-Apr-19 21:35N 36°59' W 076°06'110.1
2017-Apr-19 21:30N 36°58' W 076°05'121 9.6
2017-Apr-19 08:52N 38°44' W 074°52'25 9.5
2017-Apr-19 06:18N 39°06' W 074°38'5 9.7
2017-Apr-19 05:49N 39°10' W 074°35'4 9.8
2017-Apr-19 05:24N 39°14' W 074°32'11 3.9
2017-Apr-19 02:36N 39°24' W 074°26'0 0.0
2017-Apr-19 01:25N 39°24' W 074°26'  
2017-Apr-16 12:35N 39°24' W 074°26'0 0.0
2017-Apr-16 12:29N 39°24' W 074°26'0 0.1
2017-Apr-16 12:00N 39°24' W 074°26'0 0.2
2017-Apr-16 11:30N 39°24' W 074°26'0 0.0
2017-Apr-15 12:33N 39°24' W 074°26'0 0.5
2017-Apr-15 12:30N 39°24' W 074°26'0 0.5
2017-Apr-15 12:00N 39°23' W 074°26'1 2.2
2017-Apr-15 11:30N 39°23' W 074°25'1 2.6
2017-Apr-15 11:00N 39°21' W 074°24'2 2.3
2017-Apr-15 10:17N 39°22' W 074°26'0 0.0
2017-Apr-15 09:37N 39°23' W 074°26'0 0.0
2017-Apr-15 09:30N 39°23' W 074°26'0 0.0
2017-Apr-15 08:58N 39°23' W 074°26'0 0.0
2017-Apr-15 08:30N 39°23' W 074°26'0 0.0
2017-Apr-15 07:59N 39°23' W 074°26'0 0.0
2017-Apr-15 07:31N 39°23' W 074°26'0 0.0
2017-Apr-15 06:59N 39°23' W 074°26'0 0.0
2017-Apr-15 06:30N 39°23' W 074°26'0 0.0
2017-Apr-15 06:00N 39°23' W 074°26'0 0.0
2017-Apr-15 05:30N 39°23' W 074°26'0 0.0
2017-Apr-15 04:39N 39°23' W 074°26'1 2.7
2017-Apr-15 04:27N 39°23' W 074°25'1 1.1
2017-Apr-15 03:32N 39°24' W 074°26'0 0.0
2017-Apr-15 03:20N 39°24' W 074°26'  

Dump ship's entire track history